Time;durP1;ratioP1;P1;durP2;ratioP2;P2;SDS_P1;SDS_P2;PMS_P1;PMS_P2;Temp;Humidity;BMP_temperature;BMP_pressure;BME280_temperature;BME280_humidity;BME280_pressure;Samples;Min_cycle;Max_cycle;Signal;HPM_P1;HPM_P2
2023/01/29 00:01:02;;;;;;;18.15;7.70;;;;;;;0.89;100.00;102559.06;6260248;28;20057;-78
2023/01/29 00:04:05;;;;;;;25.67;8.40;;;;;;;0.94;100.00;102549.66;6250046;28;20057;-77
2023/01/29 00:07:07;;;;;;;12.80;6.63;;;;;;;0.85;100.00;102541.75;6275047;28;20056;-78
2023/01/29 00:10:10;;;;;;;18.33;7.72;;;;;;;0.86;100.00;102530.53;6273087;28;20124;-78
2023/01/29 00:13:11;;;;;;;14.40;7.40;;;;;;;0.92;100.00;102541.88;6253651;28;20060;-77
2023/01/29 00:16:13;;;;;;;16.75;7.13;;;;;;;0.93;100.00;102530.66;6261216;28;20053;-77
2023/01/29 00:19:16;;;;;;;22.15;7.15;;;;;;;0.99;100.00;102528.16;6264060;28;20053;-77
2023/01/29 00:22:17;;;;;;;15.52;6.53;;;;;;;0.94;100.00;102534.97;6279711;28;20194;-77
2023/01/29 00:25:18;;;;;;;15.10;6.50;;;;;;;0.89;100.00;102539.22;6277498;28;20052;-77
2023/01/29 00:28:20;;;;;;;21.83;6.95;;;;;;;0.82;100.00;102537.41;6279197;28;20057;-77
2023/01/29 00:31:23;;;;;;;12.90;6.15;;;;;;;0.87;100.00;102542.66;6266609;28;20057;-77
2023/01/29 00:34:25;;;;;;;16.80;6.32;;;;;;;0.86;100.00;102536.56;6279196;28;20076;-77
2023/01/29 00:37:27;;;;;;;15.18;5.97;;;;;;;0.83;100.00;102535.69;6277629;28;20052;-77
2023/01/29 00:44:56;;;;;;;15.73;6.25;;;;;;;0.84;100.00;102538.28;6279867;28;20048;-77
2023/01/29 00:47:29;;;;;;;16.25;7.45;;;;;;;0.83;100.00;102533.97;6278524;28;20041;-77
2023/01/29 00:50:31;;;;;;;20.60;8.07;;;;;;;0.79;100.00;102531.31;6278711;28;20053;-77
2023/01/29 00:53:33;;;;;;;16.98;7.70;;;;;;;0.87;100.00;102530.56;6278647;28;20052;-77
2023/01/29 00:56:36;;;;;;;13.18;6.75;;;;;;;0.92;100.00;102523.75;6279076;28;20527;-77
2023/01/29 00:59:37;;;;;;;17.42;7.47;;;;;;;0.90;100.00;102512.50;6278559;28;20053;-77
2023/01/29 01:06:07;;;;;;;20.30;7.82;;;;;;;0.91;100.00;102501.31;6278518;28;20438;-77
2023/01/29 01:12:29;;;;;;;13.88;6.78;;;;;;;0.87;100.00;102483.13;6253817;28;20436;-77
2023/01/29 01:15:35;;;;;;;16.70;7.43;;;;;;;0.83;100.00;102489.97;6262844;28;20367;-77
2023/01/29 01:18:36;;;;;;;23.42;7.60;;;;;;;0.70;100.00;102493.22;6277135;28;20040;-77
2023/01/29 01:21:39;;;;;;;13.25;6.45;;;;;;;0.78;100.00;102504.56;6272070;28;20139;-77
2023/01/29 01:24:40;;;;;;;13.18;6.07;;;;;;;0.79;100.00;102495.06;6253839;28;20057;-77
2023/01/29 01:27:42;;;;;;;18.83;7.82;;;;;;;0.79;100.00;102497.66;6253773;28;20061;-78
2023/01/29 01:30:43;;;;;;;15.07;7.60;;;;;;;0.84;100.00;102496.00;6273022;28;20056;-78
2023/01/29 01:33:44;;;;;;;15.63;6.70;;;;;;;0.82;100.00;102496.00;6277467;28;20059;-77
2023/01/29 01:36:47;;;;;;;13.40;6.47;;;;;;;0.87;100.00;102488.31;6278447;28;20049;-78
2023/01/29 01:39:49;;;;;;;14.32;7.05;;;;;;;0.84;100.00;102489.13;6277321;28;20312;-77
2023/01/29 01:42:53;;;;;;;17.90;8.70;;;;;;;0.72;100.00;102494.97;6276228;28;20148;-78
2023/01/29 01:45:54;;;;;;;17.63;7.32;;;;;;;0.66;100.00;102507.81;6277957;28;20045;-77
2023/01/29 01:48:59;;;;;;;15.45;6.22;;;;;;;0.66;100.00;102507.81;6263360;28;20056;-70
2023/01/29 01:52:02;;;;;;;18.77;7.88;;;;;;;0.73;100.00;102506.22;6253028;28;20363;-70
2023/01/29 01:55:05;;;;;;;16.10;7.80;;;;;;;0.67;100.00;102516.44;6252460;28;20053;-70
2023/01/29 01:58:12;;;;;;;19.77;8.70;;;;;;;0.66;100.00;102507.81;6267897;28;20045;-70
2023/01/29 02:01:13;;;;;;;18.17;8.25;;;;;;;0.70;100.00;102506.16;6277235;28;20045;-70
2023/01/29 02:11:01;;;;;;;13.52;6.70;;;;;;;0.58;100.00;102516.28;6273339;28;20045;-70
2023/01/29 02:14:02;;;;;;;19.20;7.88;;;;;;;0.59;100.00;102523.19;6270881;28;20086;-70
2023/01/29 02:17:04;;;;;;;20.98;8.05;;;;;;;0.59;100.00;102515.44;6265646;28;20049;-70
2023/01/29 02:20:17;;;;;;;15.02;7.07;;;;;;;0.64;100.00;102519.00;6272405;28;20071;-70
2023/01/29 02:23:53;;;;;;;16.52;7.35;;;;;;;0.67;100.00;102514.72;6267036;28;20048;-70
2023/01/29 02:27:04;;;;;;;22.80;8.68;;;;;;;0.73;100.00;102521.72;6254890;28;20041;-70
2023/01/29 02:30:15;;;;;;;18.63;8.63;;;;;;;0.67;100.00;102529.38;6263241;28;20049;-70
2023/01/29 02:33:26;;;;;;;16.60;7.57;;;;;;;0.66;100.00;102525.06;6263326;28;20045;-70
2023/01/29 02:36:35;;;;;;;26.25;7.72;;;;;;;0.66;100.00;102522.47;6265836;28;20057;-70
2023/01/29 02:39:45;;;;;;;17.73;6.63;;;;;;;0.69;100.00;102528.56;6263352;28;20045;-70
2023/01/29 02:42:52;;;;;;;12.73;6.32;;;;;;;0.71;100.00;102523.41;6259915;28;20053;-70
2023/01/29 02:46:02;;;;;;;20.10;8.57;;;;;;;0.70;100.00;102524.25;6275921;28;20052;-70
2023/01/29 02:49:10;;;;;;;22.05;7.90;;;;;;;0.73;100.00;102521.72;6275321;28;20332;-70
2023/01/29 02:52:17;;;;;;;18.30;7.43;;;;;;;0.76;100.00;102520.03;6276014;28;20083;-70
2023/01/29 02:55:23;;;;;;;25.05;8.23;;;;;;;0.86;100.00;102521.06;6252863;28;20083;-70
2023/01/29 02:58:30;;;;;;;19.65;8.38;;;;;;;0.85;100.00;102514.13;6265562;28;20347;-70
2023/01/29 03:01:38;;;;;;;18.88;6.93;;;;;;;0.84;100.00;102508.94;6264413;28;20136;-70
2023/01/29 03:04:46;;;;;;;20.42;8.38;;;;;;;0.81;100.00;102508.91;6275922;28;20048;-70
2023/01/29 03:07:53;;;;;;;20.08;8.30;;;;;;;0.89;100.00;102500.41;6275329;28;20324;-70
2023/01/29 03:11:00;;;;;;;18.33;7.75;;;;;;;0.85;100.00;102498.59;6274421;28;20056;-70
2023/01/29 03:14:07;;;;;;;17.48;8.43;;;;;;;0.89;100.00;102496.94;6275335;28;20052;-70
2023/01/29 03:17:09;;;;;;;21.15;7.72;;;;;;;0.85;100.00;102498.59;6274016;28;20049;-70
2023/01/29 03:20:14;;;;;;;16.77;7.00;;;;;;;0.84;100.00;102494.28;6275446;28;20053;-70
2023/01/29 03:23:22;;;;;;;17.80;7.30;;;;;;;0.92;100.00;102481.47;6272185;28;20049;-70
2023/01/29 03:33:11;;;;;;;17.75;8.05;;;;;;;0.87;100.00;102475.38;6267030;28;20044;-70
2023/01/29 03:36:18;;;;;;;16.02;6.78;;;;;;;0.85;100.00;102477.03;6275170;28;20049;-70
2023/01/29 03:39:19;;;;;;;21.27;8.35;;;;;;;0.84;100.00;102468.41;6258816;28;20052;-70
2023/01/29 03:42:28;;;;;;;17.13;7.22;;;;;;;0.80;100.00;102458.84;6257213;28;20056;-70
2023/01/29 03:45:41;;;;;;;18.63;8.65;;;;;;;0.78;100.00;102447.63;6253168;28;20333;-70
2023/01/29 03:48:54;;;;;;;18.15;8.15;;;;;;;0.78;100.00;102441.59;6254933;28;20115;-70
2023/01/29 03:52:00;;;;;;;24.63;8.48;;;;;;;0.84;100.00;102444.25;6266676;28;20049;-70
2023/01/29 03:55:13;;;;;;;21.27;8.40;;;;;;;0.85;100.00;102433.06;6252767;28;20053;-69
2023/01/29 03:58:23;;;;;;;17.20;7.10;;;;;;;0.91;100.00;102427.94;6259948;28;20045;-70
2023/01/29 04:01:29;;;;;;;17.75;7.95;;;;;;;0.87;100.00;102419.28;6253756;28;20052;-70
2023/01/29 04:04:35;;;;;;;18.50;8.35;;;;;;;0.83;100.00;102407.16;6273490;28;20394;-70
2023/01/29 04:07:39;;;;;;;30.95;9.18;;;;;;;0.87;100.00;102397.72;6274787;28;20044;-70
2023/01/29 04:10:43;;;;;;;16.42;6.45;;;;;;;0.91;100.00;102391.72;6273187;28;20053;-70
2023/01/29 04:13:46;;;;;;;16.27;6.35;;;;;;;0.83;100.00;102395.94;6273040;28;20056;-70
2023/01/29 04:16:51;;;;;;;23.85;7.75;;;;;;;0.92;100.00;102403.84;6265631;28;20056;-70
2023/01/29 04:19:54;;;;;;;16.48;7.88;;;;;;;0.91;100.00;102390.03;6250486;28;20046;-70
2023/01/29 04:22:55;;;;;;;17.55;8.07;;;;;;;0.89;100.00;102398.59;6268320;28;20049;-70
2023/01/29 04:26:21;;;;;;;22.58;7.95;;;;;;;0.89;100.00;102394.28;6273177;28;20049;-70
2023/01/29 04:29:36;;;;;;;17.00;8.10;;;;;;;0.87;100.00;102395.13;6267617;28;20073;-70
2023/01/29 04:32:52;;;;;;;17.67;6.97;;;;;;;0.80;100.00;102377.78;6252873;28;20054;-70
2023/01/29 04:36:11;;;;;;;25.40;6.82;;;;;;;0.82;100.00;102373.47;6250192;28;20458;-70
2023/01/29 04:39:18;;;;;;;12.90;6.18;;;;;;;0.92;100.00;102362.41;6249982;28;20049;-70
2023/01/29 04:42:27;;;;;;;19.85;7.22;;;;;;;0.82;100.00;102373.47;6251096;28;20042;-70
2023/01/29 04:45:40;;;;;;;25.58;9.07;;;;;;;0.80;100.00;102382.97;6249910;28;20045;-70
2023/01/29 04:48:52;;;;;;;15.20;7.05;;;;;;;0.81;100.00;102384.69;6250542;28;20482;-70
2023/01/29 04:52:00;;;;;;;19.88;7.93;;;;;;;0.82;100.00;102382.13;6250089;28;20049;-70
2023/01/29 04:55:07;;;;;;;18.08;6.85;;;;;;;0.78;100.00;102377.78;6249504;28;20435;-70
2023/01/29 04:58:14;;;;;;;17.75;7.90;;;;;;;0.85;100.00;102386.47;6252631;28;20050;-70
2023/01/29 05:01:18;;;;;;;17.85;8.35;;;;;;;0.81;100.00;102382.09;6275584;28;20367;-70
2023/01/29 05:04:21;;;;;;;18.20;8.35;;;;;;;0.82;100.00;102382.13;6255745;28;20064;-70
2023/01/29 05:07:25;;;;;;;22.85;8.52;;;;;;;0.83;100.00;102375.25;6254982;28;20045;-70
2023/01/29 05:10:27;;;;;;;18.77;7.40;;;;;;;0.86;100.00;102365.78;6253919;28;20054;-70
2023/01/29 05:13:31;;;;;;;14.93;6.78;;;;;;;0.87;100.00;102362.38;6253969;28;20049;-70
2023/01/29 05:16:40;;;;;;;16.75;7.43;;;;;;;0.75;100.00;102370.81;6259119;28;20049;-70
2023/01/29 05:19:42;;;;;;;16.05;7.28;;;;;;;0.72;100.00;102377.66;6278679;28;20060;-70
2023/01/29 05:22:47;;;;;;;16.17;7.00;;;;;;;0.77;100.00;102378.59;6260236;28;20057;-70
2023/01/29 05:25:49;;;;;;;23.67;8.43;;;;;;;0.76;100.00;102387.22;6253685;28;20041;-70
2023/01/29 05:28:49;;;;;;;20.83;8.15;;;;;;;0.72;100.00;102385.44;6253247;28;20355;-69
2023/01/29 05:31:51;;;;;;;13.82;7.35;;;;;;;0.73;100.00;102376.84;6266749;28;20057;-70
2023/01/29 05:34:52;;;;;;;17.00;6.55;;;;;;;0.77;100.00;102383.78;6278256;28;20045;-70
2023/01/29 05:37:55;;;;;;;17.60;7.85;;;;;;;0.80;100.00;102399.34;6256786;28;20049;-70
2023/01/29 05:40:58;;;;;;;17.10;6.85;;;;;;;0.84;100.00;102405.44;6253302;28;20057;-70
2023/01/29 05:43:59;;;;;;;19.60;7.97;;;;;;;0.83;100.00;102391.63;6253199;28;20049;-71
2023/01/29 05:47:01;;;;;;;19.75;7.40;;;;;;;0.88;100.00;102381.34;6271745;28;20041;-70
2023/01/29 05:50:02;;;;;;;20.58;8.13;;;;;;;0.92;100.00;102372.78;6277813;28;20136;-71
2023/01/29 05:53:05;;;;;;;17.80;7.88;;;;;;;0.86;100.00;102381.31;6277549;28;20056;-70
2023/01/29 05:56:07;;;;;;;16.73;7.07;;;;;;;0.88;100.00;102379.63;6277214;28;20123;-70
2023/01/29 05:59:08;;;;;;;21.02;7.47;;;;;;;0.78;100.00;102380.34;6268154;28;20063;-69
2023/01/29 06:02:10;;;;;;;15.38;7.00;;;;;;;0.81;100.00;102393.31;6275871;28;20060;-70
2023/01/29 06:05:11;;;;;;;19.55;6.93;;;;;;;0.85;100.00;102391.66;6274941;28;20052;-70
2023/01/29 06:08:14;;;;;;;16.95;6.97;;;;;;;0.88;100.00;102396.88;6277461;28;20053;-70
2023/01/29 06:11:17;;;;;;;15.75;7.70;;;;;;;0.86;100.00;102390.78;6270897;28;20423;-70
2023/01/29 06:14:18;;;;;;;16.70;7.55;;;;;;;0.88;100.00;102387.38;6276824;28;20045;-70
2023/01/29 06:17:19;;;;;;;17.45;7.68;;;;;;;0.94;100.00;102384.88;6275587;28;20056;-70
2023/01/29 06:20:21;;;;;;;21.73;8.60;;;;;;;1.00;100.00;102374.59;6268499;28;20052;-70
2023/01/29 06:23:24;;;;;;;18.25;8.27;;;;;;;1.05;100.00;102377.25;6263996;28;20067;-70
2023/01/29 06:26:25;;;;;;;17.75;8.48;;;;;;;1.00;100.00;102372.03;6265284;28;20053;-70
2023/01/29 06:29:26;;;;;;;17.35;7.72;;;;;;;0.99;100.00;102375.44;6261541;28;20342;-70
2023/01/29 06:32:28;;;;;;;20.35;7.88;;;;;;;1.01;100.00;102371.16;6264239;28;20052;-70
2023/01/29 06:35:29;;;;;;;19.48;8.45;;;;;;;1.05;100.00;102379.84;6276581;28;20057;-70
2023/01/29 06:38:33;;;;;;;18.65;8.10;;;;;;;1.11;100.00;102376.44;6276474;28;20052;-70
2023/01/29 06:41:34;;;;;;;20.58;8.85;;;;;;;1.13;100.00;102385.94;6276729;28;20053;-70
2023/01/29 06:44:35;;;;;;;21.98;8.00;;;;;;;1.15;100.00;102386.88;6254703;28;20359;-70
2023/01/29 06:47:37;;;;;;;20.35;8.77;;;;;;;1.07;100.00;102393.66;6253331;28;20049;-70
2023/01/29 06:50:38;;;;;;;17.45;7.43;;;;;;;1.05;100.00;102400.56;6276122;28;20351;-70
2023/01/29 06:53:40;;;;;;;18.05;7.65;;;;;;;1.01;100.00;102386.69;6274845;28;20049;-70
2023/01/29 06:56:42;;;;;;;15.73;6.97;;;;;;;1.10;100.00;102387.66;6276387;28;20053;-70
2023/01/29 06:59:43;;;;;;;24.38;7.95;;;;;;;0.96;100.00;102397.84;6276116;28;20427;-70
2023/01/29 07:02:44;;;;;;;18.63;7.70;;;;;;;1.01;100.00;102404.81;6267495;28;20064;-70
2023/01/29 07:05:50;;;;;;;25.83;9.23;;;;;;;1.01;100.00;102404.81;6251356;28;20324;-70
2023/01/29 07:08:53;;;;;;;23.30;9.18;;;;;;;1.02;100.00;102397.91;6252531;28;20045;-70
2023/01/29 07:11:54;;;;;;;21.35;8.55;;;;;;;1.05;100.00;102373.81;6262974;28;20442;-70
2023/01/29 07:14:55;;;;;;;20.05;8.60;;;;;;;1.08;100.00;102369.50;6259603;28;20056;-70
2023/01/29 07:17:58;;;;;;;21.77;8.88;;;;;;;1.09;100.00;102371.25;6261499;28;20052;-70
2023/01/29 07:21:04;;;;;;;20.48;9.15;;;;;;;1.10;100.00;102391.13;6275659;28;20056;-70
2023/01/29 07:24:07;;;;;;;27.48;10.18;;;;;;;1.07;100.00;102387.63;6251582;28;20049;-70
2023/01/29 07:27:08;;;;;;;24.10;11.25;;;;;;;1.08;100.00;102379.84;6252072;28;20056;-70
2023/01/29 07:30:11;;;;;;;25.80;9.95;;;;;;;1.04;100.00;102361.69;6267153;28;20060;-71
2023/01/29 07:33:12;;;;;;;27.30;9.80;;;;;;;0.96;100.00;102352.13;6271183;28;20443;-70
2023/01/29 07:36:14;;;;;;;27.02;10.75;;;;;;;0.95;100.00;102365.03;6273461;28;20049;-70
2023/01/29 07:39:17;;;;;;;28.55;10.30;;;;;;;0.91;100.00;102361.56;6274689;28;20052;-70
2023/01/29 07:42:18;;;;;;;34.17;11.25;;;;;;;0.93;100.00;102354.66;6262602;28;20045;-70
2023/01/29 07:45:19;;;;;;;25.92;8.93;;;;;;;0.92;100.00;102352.06;6260198;28;20053;-69
2023/01/29 07:48:21;;;;;;;22.65;9.73;;;;;;;0.96;100.00;102353.84;6259809;28;20041;-70
2023/01/29 07:51:22;;;;;;;27.15;11.60;;;;;;;0.87;100.00;102348.56;6260510;28;20052;-70
2023/01/29 07:54:25;;;;;;;30.52;10.25;;;;;;;0.92;100.00;102360.69;6262177;28;20052;-70
2023/01/29 07:57:26;;;;;;;29.10;11.52;;;;;;;0.91;100.00;102346.03;6261206;28;20037;-70
2023/01/29 08:00:28;;;;;;;34.78;10.00;;;;;;;0.92;100.00;102347.75;6262380;28;20136;-70
2023/01/29 08:03:29;;;;;;;27.13;10.02;;;;;;;0.93;100.00;102353.78;6261359;28;20041;-70
2023/01/29 08:06:31;;;;;;;25.70;10.40;;;;;;;0.97;100.00;102345.22;6261288;28;20045;-70
2023/01/29 08:09:33;;;;;;;22.42;9.95;;;;;;;0.94;100.00;102330.50;6259659;28;20427;-70
2023/01/29 08:12:35;;;;;;;22.30;10.27;;;;;;;0.99;100.00;102320.22;6262742;28;20053;-70
2023/01/29 08:15:36;;;;;;;30.45;12.25;;;;;;;0.97;100.00;102317.63;6259462;28;20048;-70
2023/01/29 08:18:38;;;;;;;27.50;10.40;;;;;;;1.04;100.00;102312.50;6262654;28;20407;-70
2023/01/29 08:21:39;;;;;;;34.42;12.18;;;;;;;1.09;100.00;102318.59;6260466;28;20048;-70
2023/01/29 08:24:42;;;;;;;26.17;11.30;;;;;;;1.06;100.00;102306.50;6264220;28;20061;-78
2023/01/29 08:27:43;;;;;;;34.97;11.68;;;;;;;1.09;100.00;102308.22;6265645;28;20045;-78
2023/01/29 08:30:45;;;;;;;30.77;11.77;;;;;;;1.06;100.00;102316.84;6265994;28;20046;-78
2023/01/29 08:33:46;;;;;;;30.10;12.60;;;;;;;1.00;100.00;102317.66;6257371;28;20051;-78
2023/01/29 08:36:48;;;;;;;27.45;10.88;;;;;;;1.01;100.00;102309.03;6269293;28;20491;-78
2023/01/29 08:39:50;;;;;;;29.30;12.48;;;;;;;1.03;100.00;102309.03;6258473;28;20042;-77
2023/01/29 08:42:52;;;;;;;30.48;12.60;;;;;;;1.14;100.00;102299.69;6261366;28;20068;-77
2023/01/29 08:45:53;;;;;;;34.42;14.30;;;;;;;1.10;100.00;102305.69;6262285;28;20056;-78
2023/01/29 08:48:54;;;;;;;29.20;12.95;;;;;;;1.20;100.00;102309.22;6278637;28;20049;-78
2023/01/29 08:51:56;;;;;;;35.25;13.40;;;;;;;1.16;100.00;102305.75;6278688;28;20496;-77
2023/01/29 08:54:59;;;;;;;33.97;12.40;;;;;;;1.09;100.00;102316.00;6273881;28;20450;-78
2023/01/29 08:58:00;;;;;;;38.20;11.93;;;;;;;1.00;100.00;102328.00;6267318;28;20052;-77
2023/01/29 09:01:08;;;;;;;33.30;13.05;;;;;;;0.98;100.00;102329.69;6265934;28;20044;-77
2023/01/29 09:04:10;;;;;;;32.50;12.25;;;;;;;1.10;100.00;102330.72;6263480;28;20041;-77
2023/01/29 09:07:11;;;;;;;26.92;11.23;;;;;;;1.07;100.00;102322.91;6268262;28;20068;-77
2023/01/29 09:10:14;;;;;;;23.33;10.73;;;;;;;1.08;100.00;102315.13;6273411;28;20048;-78
2023/01/29 09:13:15;;;;;;;28.13;10.43;;;;;;;1.14;100.00;102309.19;6277664;28;20354;-77
2023/01/29 09:16:16;;;;;;;25.23;9.32;;;;;;;1.20;100.00;102307.50;6278351;28;20040;-77
2023/01/29 09:19:18;;;;;;;23.60;10.95;;;;;;;1.10;100.00;102295.34;6278316;28;20048;-77
2023/01/29 09:22:19;;;;;;;36.50;12.30;;;;;;;1.18;100.00;102300.56;6270556;28;20049;-77
2023/01/29 09:25:22;;;;;;;32.75;12.02;;;;;;;1.26;100.00;102298.94;6277913;28;20045;-77
2023/01/29 09:28:23;;;;;;;26.65;10.35;;;;;;;1.26;100.00;102288.56;6268458;28;20037;-78
2023/01/29 09:31:24;;;;;;;29.75;10.77;;;;;;;1.29;100.00;102282.56;6273786;28;20052;-75
2023/01/29 09:34:25;;;;;;;34.83;11.60;;;;;;;1.25;100.00;102295.47;6256935;28;20462;-75
2023/01/29 09:37:27;;;;;;;25.13;10.85;;;;;;;1.27;100.00;102290.31;6269068;28;20049;-75
2023/01/29 09:40:35;;;;;;;34.47;13.15;;;;;;;1.30;100.00;102292.06;6271008;28;20049;-74
2023/01/29 09:43:45;;;;;;;24.37;10.60;;;;;;;1.40;100.00;102292.16;6267727;28;20445;-78
2023/01/29 09:46:48;;;;;;;27.83;11.00;;;;;;;1.38;100.00;102282.66;6274768;28;20049;-75
2023/01/29 09:49:52;;;;;;;28.00;10.40;;;;;;;1.33;100.00;102285.19;6277627;28;20432;-77
2023/01/29 09:52:58;;;;;;;24.33;10.88;;;;;;;1.29;100.00;102288.63;6267672;28;20056;-77
2023/01/29 09:56:04;;;;;;;32.25;11.77;;;;;;;1.30;100.00;102277.41;6271003;28;20053;-76
2023/01/29 09:59:06;;;;;;;24.38;10.75;;;;;;;1.37;100.00;102271.44;6274969;28;20041;-75
2023/01/29 10:02:10;;;;;;;32.15;11.85;;;;;;;1.40;100.00;102262.81;6270174;28;20056;-76
2023/01/29 10:05:30;;;;;;;24.23;9.57;;;;;;;1.47;100.00;102268.06;6271522;28;20045;-78
2023/01/29 10:08:50;;;;;;;24.73;10.38;;;;;;;1.52;100.00;102263.78;6262890;28;20044;-76
2023/01/29 10:12:01;;;;;;;25.33;11.10;;;;;;;1.60;100.00;102263.00;6276000;28;20060;-75
2023/01/29 10:15:13;;;;;;;21.90;9.18;;;;;;;1.62;100.00;102259.53;6275251;28;20070;-76
2023/01/29 10:18:50;;;;;;;21.42;8.95;;;;;;;1.61;100.00;102257.81;6268385;28;20048;-77
2023/01/29 10:22:08;;;;;;;23.73;9.63;;;;;;;1.64;100.00;102255.25;6268553;28;20071;-76
2023/01/29 10:25:13;;;;;;;26.63;8.88;;;;;;;1.69;100.00;102240.59;6270596;28;20046;-78
2023/01/29 10:28:19;;;;;;;24.13;9.77;;;;;;;1.76;100.00;102244.97;6270270;28;20049;-76
2023/01/29 10:31:27;;;;;;;23.90;9.77;;;;;;;1.80;100.00;102234.63;6269897;28;20044;-76
2023/01/29 10:34:33;;;;;;;25.05;9.55;;;;;;;1.85;100.00;102238.09;6263273;28;20053;-76
2023/01/29 10:37:39;;;;;;;20.35;7.90;;;;;;;1.94;100.00;102233.84;6256613;28;20041;-76
2023/01/29 10:40:46;;;;;;;25.90;9.10;;;;;;;1.97;100.00;102233.00;6252004;28;20049;-76
2023/01/29 10:44:02;;;;;;;20.42;8.55;;;;;;;2.00;100.00;102225.25;6263711;28;20136;-78
2023/01/29 10:47:37;;;;;;;25.00;9.57;;;;;;;2.02;100.00;102214.03;6265287;28;20063;-75
2023/01/29 10:50:48;;;;;;;21.80;8.02;;;;;;;1.99;100.00;102211.41;6252859;28;20340;-76
2023/01/29 10:54:03;;;;;;;16.80;7.53;;;;;;;2.00;100.00;102222.66;6252551;28;20120;-78
2023/01/29 10:57:13;;;;;;;24.13;8.57;;;;;;;2.02;100.00;102220.94;6263913;28;20064;-76
2023/01/29 11:00:20;;;;;;;22.55;8.90;;;;;;;1.96;100.00;102208.81;6266915;28;20052;-76
2023/01/29 11:03:24;;;;;;;16.73;7.68;;;;;;;2.06;100.00;102208.88;6273938;28;20041;-76
2023/01/29 11:06:30;;;;;;;17.63;8.27;;;;;;;2.10;100.00;102208.88;6266511;28;20072;-76
2023/01/29 11:09:36;;;;;;;17.42;7.88;;;;;;;1.98;100.00;102206.22;6268352;28;20049;-76
2023/01/29 11:12:38;;;;;;;15.90;7.57;;;;;;;1.95;100.00;102196.72;6266882;28;20427;-76
2023/01/29 11:15:41;;;;;;;18.15;8.07;;;;;;;1.96;100.00;102193.25;6268486;28;20045;-76
2023/01/29 11:18:54;;;;;;;19.52;7.70;;;;;;;2.00;100.00;102187.25;6275292;28;20053;-76
2023/01/29 11:21:57;;;;;;;19.98;8.60;;;;;;;2.03;100.00;102196.75;6250917;28;20344;-76
2023/01/29 11:25:15;;;;;;;16.98;8.77;;;;;;;2.02;100.00;102182.06;6261183;28;20049;-76
2023/01/29 11:28:35;;;;;;;19.42;8.38;;;;;;;2.08;100.00;102170.84;6273267;28;20041;-76
2023/01/29 11:31:39;;;;;;;23.00;9.07;;;;;;;2.02;100.00;102174.28;6256980;28;20053;-76
2023/01/29 11:34:58;;;;;;;18.67;8.60;;;;;;;2.03;100.00;102171.69;6266922;28;20391;-76
2023/01/29 11:38:09;;;;;;;23.00;8.98;;;;;;;1.94;100.00;102160.41;6275246;28;20417;-76
2023/01/29 11:41:17;;;;;;;24.23;10.07;;;;;;;1.92;100.00;102149.16;6274264;28;20049;-76
2023/01/29 11:44:21;;;;;;;21.33;9.23;;;;;;;1.97;100.00;102140.56;6270645;28;20461;-76
2023/01/29 11:47:27;;;;;;;32.53;9.10;;;;;;;1.93;100.00;102137.94;6258494;28;20063;-76
2023/01/29 11:50:31;;;;;;;30.38;10.88;;;;;;;1.97;100.00;102135.38;6274057;28;20383;-76
2023/01/29 11:53:38;;;;;;;22.65;8.40;;;;;;;2.06;100.00;102131.09;6263016;28;20045;-76
2023/01/29 11:56:42;;;;;;;21.33;8.80;;;;;;;2.08;100.00;102124.16;6266135;28;20048;-76
2023/01/29 11:59:50;;;;;;;21.65;8.32;;;;;;;2.11;100.00;102119.00;6264793;28;20439;-76
2023/01/29 12:02:56;;;;;;;26.20;9.40;;;;;;;2.15;100.00;102115.56;6262363;28;20359;-76
2023/01/29 12:06:00;;;;;;;19.98;8.07;;;;;;;2.16;100.00;102112.09;6259149;28;20053;-76
2023/01/29 12:09:10;;;;;;;22.27;9.23;;;;;;;2.12;100.00;102102.56;6251375;28;20052;-76
2023/01/29 12:12:27;;;;;;;20.58;8.43;;;;;;;2.11;100.00;102098.25;6276986;28;20076;-76
2023/01/29 12:15:28;;;;;;;26.27;9.27;;;;;;;2.11;100.00;102086.16;6267039;28;20049;-76
2023/01/29 12:18:36;;;;;;;19.17;7.82;;;;;;;2.17;100.00;102088.75;6268357;28;20041;-76
2023/01/29 12:21:46;;;;;;;20.80;8.68;;;;;;;2.06;100.00;102092.19;6273451;28;20049;-76
2023/01/29 12:24:53;;;;;;;22.73;9.75;;;;;;;2.10;100.00;102086.16;6275917;28;20052;-76
2023/01/29 12:28:00;;;;;;;25.55;8.35;;;;;;;2.16;100.00;102086.16;6269965;28;20053;-76
2023/01/29 12:31:12;;;;;;;25.17;10.18;;;;;;;2.14;100.00;102075.81;6269307;28;20446;-76
2023/01/29 12:34:22;;;;;;;20.80;9.35;;;;;;;2.06;100.00;102084.41;6263244;28;20053;-77
2023/01/29 12:37:28;;;;;;;21.02;8.73;;;;;;;2.02;100.00;102074.03;6255254;28;20061;-76
2023/01/29 12:40:34;;;;;;;19.77;8.65;;;;;;;2.03;100.00;102069.69;6254580;28;20049;-76
2023/01/29 12:43:41;;;;;;;24.63;9.70;;;;;;;1.99;100.00;102066.22;6254993;28;20049;-76
2023/01/29 12:46:49;;;;;;;25.60;10.15;;;;;;;2.06;100.00;102063.69;6254473;28;20056;-76
2023/01/29 12:49:56;;;;;;;30.67;9.73;;;;;;;2.07;100.00;102050.69;6264382;28;20073;-76
2023/01/29 12:53:03;;;;;;;27.40;10.98;;;;;;;2.10;100.00;102055.03;6265229;28;20375;-76
2023/01/29 12:56:10;;;;;;;28.45;10.10;;;;;;;2.15;100.00;102054.19;6271349;28;20053;-76
2023/01/29 12:59:17;;;;;;;19.23;8.07;;;;;;;2.04;100.00;102040.31;6264487;28;20045;-77
2023/01/29 13:02:30;;;;;;;24.92;10.23;;;;;;;2.04;100.00;102040.31;6270573;28;20077;-76
2023/01/29 13:05:38;;;;;;;25.90;10.77;;;;;;;1.93;100.00;102031.66;6269020;28;20360;-77
2023/01/29 13:08:44;;;;;;;26.27;9.95;;;;;;;1.99;100.00;102011.78;6259284;28;20455;-76
2023/01/29 13:11:51;;;;;;;21.67;9.50;;;;;;;1.99;100.00;102013.50;6264342;28;20056;-77
2023/01/29 13:14:55;;;;;;;20.95;9.18;;;;;;;2.11;100.00;102010.09;6267729;28;20045;-76
2023/01/29 13:18:02;;;;;;;24.88;10.52;;;;;;;2.12;100.00;102011.81;6276817;28;20056;-76
2023/01/29 13:21:05;;;;;;;24.27;8.90;;;;;;;2.05;100.00;101995.41;6271307;28;20052;-76
2023/01/29 13:24:13;;;;;;;16.92;8.73;;;;;;;2.06;100.00;101996.25;6263040;28;20049;-77
2023/01/29 13:27:21;;;;;;;26.00;10.35;;;;;;;2.12;100.00;101988.50;6253797;28;20052;-76
2023/01/29 13:30:25;;;;;;;28.13;12.40;;;;;;;2.16;100.00;101987.63;6254634;28;20053;-76
2023/01/29 13:33:27;;;;;;;21.52;9.43;;;;;;;2.20;100.00;101999.75;6269299;28;20049;-76
2023/01/29 13:36:31;;;;;;;22.58;10.38;;;;;;;2.18;100.00;101979.00;6277927;28;20074;-76
2023/01/29 13:39:36;;;;;;;19.65;8.20;;;;;;;2.17;100.00;101990.22;6274449;28;20045;-76
2023/01/29 13:42:43;;;;;;;23.48;9.30;;;;;;;2.21;100.00;101986.75;6271797;28;20064;-77
2023/01/29 13:45:46;;;;;;;23.75;10.15;;;;;;;2.24;100.00;101972.94;6269625;28;20149;-76
2023/01/29 13:48:51;;;;;;;18.15;8.75;;;;;;;2.29;100.00;101971.22;6275395;28;20045;-77
2023/01/29 13:51:53;;;;;;;20.90;9.45;;;;;;;2.17;100.00;101966.00;6261126;28;20046;-76
2023/01/29 13:54:59;;;;;;;21.75;9.82;;;;;;;2.20;100.00;101960.84;6272866;28;20454;-77
2023/01/29 13:58:01;;;;;;;22.00;8.80;;;;;;;2.29;100.00;101959.13;6267746;28;20454;-77
2023/01/29 14:01:02;;;;;;;25.75;9.18;;;;;;;2.31;100.00;101960.84;6270813;28;20044;-77
2023/01/29 14:04:24;;;;;;;21.98;8.50;;;;;;;2.34;100.00;101961.72;6275541;28;20052;-76
2023/01/29 14:07:50;;;;;;;25.60;9.45;;;;;;;2.25;100.00;101954.78;6271258;28;20130;-77
2023/01/29 14:11:28;;;;;;;21.35;9.18;;;;;;;2.39;100.00;101947.00;6264538;28;20484;-76
2023/01/29 14:15:01;;;;;;;24.65;9.65;;;;;;;2.46;100.00;101946.16;6263073;28;20045;-76
2023/01/29 14:18:25;;;;;;;23.38;9.60;;;;;;;2.28;100.00;101944.41;6254331;28;20072;-76
2023/01/29 14:21:30;;;;;;;18.45;8.73;;;;;;;2.35;100.00;101934.91;6268933;28;20053;-76
2023/01/29 14:24:33;;;;;;;20.35;9.25;;;;;;;2.36;100.00;101936.63;6277308;28;20136;-68
2023/01/29 14:27:36;;;;;;;19.10;9.13;;;;;;;2.38;100.00;101939.22;6276816;28;20049;-68
2023/01/29 14:30:39;;;;;;;25.00;9.60;;;;;;;2.37;100.00;101934.91;6263706;28;20048;-69
2023/01/29 14:33:41;;;;;;;25.77;9.43;;;;;;;2.18;100.00;101936.63;6261268;28;20041;-68